createdAt,value
2023-02-23T00:00:49.590Z,3.03
2023-02-23T00:03:54.998Z,3.37
2023-02-23T00:06:57.335Z,2.62
2023-02-23T00:10:01.655Z,3.45
2023-02-23T00:13:05.032Z,2.58
2023-02-23T00:16:15.900Z,2.80
2023-02-23T00:19:18.205Z,2.97
2023-02-23T00:22:20.607Z,3.05
2023-02-23T00:25:24.063Z,2.58
2023-02-23T00:28:26.233Z,2.53
2023-02-23T00:31:29.276Z,1.83
2023-02-23T00:34:31.469Z,2.70
2023-02-23T00:37:33.654Z,2.55
2023-02-23T00:40:35.873Z,2.47
2023-02-23T00:43:47.512Z,3.35
2023-02-23T00:46:52.241Z,2.10
2023-02-23T00:49:54.616Z,2.70
2023-02-23T00:52:59.654Z,2.40
2023-02-23T00:56:04.823Z,2.37
2023-02-23T00:59:07.405Z,1.90
2023-02-23T01:02:09.709Z,2.70
2023-02-23T01:05:11.978Z,2.28
2023-02-23T01:08:15.462Z,2.15
2023-02-23T01:11:23.727Z,2.37
2023-02-23T01:14:26.283Z,1.67
2023-02-23T01:17:30.606Z,2.67
2023-02-23T01:20:36.218Z,2.20
2023-02-23T01:23:38.450Z,2.40
2023-02-23T01:26:45.046Z,2.30
2023-02-23T01:29:47.237Z,2.50
2023-02-23T01:32:49.569Z,2.55
2023-02-23T01:36:01.146Z,2.67
2023-02-23T01:39:07.566Z,3.33
2023-02-23T01:42:15.812Z,2.40
2023-02-23T01:45:28.981Z,2.50
2023-02-23T01:48:34.954Z,2.40
2023-02-23T01:51:43.014Z,2.55
2023-02-23T01:54:51.906Z,2.50
2023-02-23T01:57:58.089Z,2.40
2023-02-23T02:01:03.366Z,2.42
2023-02-23T02:04:05.936Z,2.60
2023-02-23T02:07:08.169Z,2.37
2023-02-23T02:10:10.867Z,2.55
2023-02-23T02:13:18.333Z,2.33
2023-02-23T02:16:46.864Z,2.67
2023-02-23T02:19:49.011Z,2.37
2023-02-23T02:23:13.078Z,3.17
2023-02-23T02:26:45.199Z,2.67
2023-02-23T02:30:23.087Z,2.40
2023-02-23T02:33:53.779Z,2.87
2023-02-23T02:37:22.871Z,2.62
2023-02-23T02:41:08.437Z,2.42
2023-02-23T02:44:33.956Z,3.17
2023-02-23T02:47:46.465Z,3.35
2023-02-23T02:51:04.582Z,2.85
2023-02-23T02:54:18.932Z,2.75
2023-02-23T02:57:25.269Z,2.78
2023-02-23T03:00:54.913Z,2.95
2023-02-23T03:04:17.524Z,2.83
2023-02-23T03:08:07.706Z,2.67
2023-02-23T03:11:32.860Z,3.42
2023-02-23T03:15:09.851Z,3.12
2023-02-23T03:19:05.025Z,3.10
2023-02-23T03:23:08.032Z,3.20
2023-02-23T03:26:38.020Z,3.05
2023-02-23T03:30:04.291Z,2.85
2023-02-23T03:33:31.736Z,2.97
2023-02-23T03:36:55.132Z,3.53
2023-02-23T03:40:25.854Z,2.85
2023-02-23T03:44:18.245Z,3.53
2023-02-23T03:47:41.956Z,2.40
2023-02-23T03:51:12.397Z,3.58
2023-02-23T03:54:37.387Z,3.87
2023-02-23T03:57:58.793Z,2.78
2023-02-23T04:01:21.800Z,3.72
2023-02-23T04:04:44.117Z,3.15
2023-02-23T04:08:06.551Z,3.08
2023-02-23T04:11:45.778Z,3.08
2023-02-23T04:15:09.837Z,3.50
2023-02-23T04:18:14.697Z,3.60
2023-02-23T04:21:17.319Z,3.12
2023-02-23T04:24:19.808Z,4.47
2023-02-23T04:27:22.026Z,3.15
2023-02-23T04:30:28.551Z,4.43
2023-02-23T04:33:30.887Z,2.45
2023-02-23T04:36:33.409Z,3.87
2023-02-23T04:39:35.630Z,2.80
2023-02-23T04:42:41.190Z,6.97
2023-02-23T04:45:45.229Z,4.75
2023-02-23T04:48:47.523Z,4.93
2023-02-23T04:51:50.132Z,4.22
2023-02-23T04:54:52.290Z,2.90
2023-02-23T04:57:59.376Z,4.70
2023-02-23T05:01:09.766Z,4.70
2023-02-23T05:04:12.174Z,3.28
2023-02-23T05:07:14.539Z,4.30
2023-02-23T05:10:16.880Z,2.90
2023-02-23T05:13:19.071Z,6.22
2023-02-23T05:16:21.336Z,3.47
2023-02-23T05:19:23.996Z,3.92
2023-02-23T05:22:26.177Z,3.85
2023-02-23T05:25:28.345Z,3.28
2023-02-23T05:28:30.793Z,2.72
2023-02-23T05:31:32.985Z,2.58
2023-02-23T05:34:35.379Z,3.03
2023-02-23T05:37:37.624Z,3.60
2023-02-23T05:40:39.924Z,4.60
2023-02-23T05:43:42.271Z,3.25
2023-02-23T05:46:45.899Z,3.83
2023-02-23T05:49:48.107Z,3.33
2023-02-23T05:52:50.306Z,3.58
2023-02-23T05:55:52.701Z,3.60
2023-02-23T05:58:57.954Z,4.12
2023-02-23T06:02:00.154Z,3.83
2023-02-23T06:05:02.516Z,3.30
2023-02-23T06:08:04.902Z,3.50
2023-02-23T06:11:07.149Z,3.08
2023-02-23T06:14:09.328Z,3.85
2023-02-23T06:17:11.543Z,3.30
2023-02-23T06:20:14.747Z,3.03
2023-02-23T06:23:17.253Z,4.35
2023-02-23T06:26:20.579Z,3.40
2023-02-23T06:29:22.993Z,3.78
2023-02-23T06:32:27.012Z,3.03
2023-02-23T06:35:29.315Z,3.67
2023-02-23T06:38:32.035Z,3.70
2023-02-23T06:41:35.238Z,3.37
2023-02-23T06:44:37.888Z,3.53
2023-02-23T06:47:40.972Z,4.55
2023-02-23T06:50:43.657Z,3.12
2023-02-23T06:53:45.842Z,3.70
2023-02-23T06:56:47.973Z,3.58
2023-02-23T06:59:50.517Z,3.50
2023-02-23T07:02:52.740Z,2.90
2023-02-23T07:05:55.041Z,3.08
2023-02-23T07:08:58.430Z,3.25
2023-02-23T07:12:04.355Z,3.70
2023-02-23T07:15:07.446Z,3.37
2023-02-23T07:18:09.689Z,2.00
2023-02-23T07:21:14.769Z,3.10
2023-02-23T07:24:16.984Z,3.70
2023-02-23T07:27:19.228Z,3.47
2023-02-23T07:30:24.514Z,2.65
2023-02-23T07:33:26.784Z,3.10
2023-02-23T07:36:29.030Z,2.83
2023-02-23T07:39:31.280Z,2.78
2023-02-23T07:42:33.792Z,2.95
2023-02-23T07:45:36.700Z,2.70
2023-02-23T07:48:40.052Z,2.72
2023-02-23T07:51:42.246Z,2.15
2023-02-23T07:54:44.401Z,2.75
2023-02-23T07:57:46.816Z,3.08
2023-02-23T08:00:49.163Z,2.85
2023-02-23T08:03:51.376Z,3.40
2023-02-23T08:06:53.589Z,2.80
2023-02-23T08:09:55.837Z,4.03
2023-02-23T08:12:58.783Z,2.95
2023-02-23T08:16:00.999Z,2.97
2023-02-23T08:19:03.342Z,3.37
2023-02-23T08:22:06.501Z,2.80
2023-02-23T08:25:10.175Z,3.60
2023-02-23T08:28:12.553Z,3.42
2023-02-23T08:31:16.452Z,2.60
2023-02-23T08:34:20.520Z,3.37
2023-02-23T08:37:22.682Z,3.15
2023-02-23T08:40:25.313Z,3.03
2023-02-23T08:43:28.023Z,3.58
2023-02-23T08:46:30.388Z,3.10
2023-02-23T08:49:33.040Z,3.15
2023-02-23T08:52:35.250Z,3.15
2023-02-23T08:55:40.299Z,3.10
2023-02-23T08:58:43.064Z,3.12
2023-02-23T09:01:45.324Z,2.62
2023-02-23T09:04:47.557Z,3.70
2023-02-23T09:07:50.115Z,3.58
2023-02-23T09:10:53.436Z,3.03
2023-02-23T09:13:55.727Z,3.42
2023-02-23T09:16:58.198Z,3.25
2023-02-23T09:20:00.425Z,3.83
2023-02-23T09:23:02.608Z,2.92
2023-02-23T09:26:08.574Z,3.08
2023-02-23T09:29:10.749Z,3.85
2023-02-23T09:32:13.122Z,2.72
2023-02-23T09:35:17.965Z,2.97
2023-02-23T09:38:20.197Z,2.70
2023-02-23T09:41:36.230Z,2.85
2023-02-23T09:45:01.468Z,3.65
2023-02-23T09:48:18.717Z,2.80
2023-02-23T09:51:22.150Z,3.20
2023-02-23T09:54:28.331Z,3.00
2023-02-23T09:57:39.728Z,3.22
2023-02-23T10:00:44.747Z,4.05
2023-02-23T10:03:53.188Z,2.40
2023-02-23T10:07:20.794Z,2.60
2023-02-23T10:10:47.933Z,2.80
2023-02-23T10:13:54.071Z,3.67
2023-02-23T10:17:11.918Z,3.28
2023-02-23T10:20:40.130Z,2.90
2023-02-23T10:23:53.440Z,2.70
2023-02-23T10:27:02.744Z,2.95
2023-02-23T10:30:16.879Z,1.90
2023-02-23T10:33:33.397Z,2.67
2023-02-23T10:36:43.221Z,2.90
2023-02-23T10:39:49.949Z,3.30
2023-02-23T10:42:52.703Z,3.35
2023-02-23T10:45:55.641Z,2.60
2023-02-23T10:48:59.690Z,3.12
2023-02-23T10:52:03.083Z,3.33
2023-02-23T10:55:07.078Z,3.30
2023-02-23T10:58:16.994Z,3.70
2023-02-23T11:02:00.452Z,3.47
2023-02-23T11:05:04.884Z,3.50
2023-02-23T11:08:10.157Z,2.87
2023-02-23T11:11:15.813Z,3.03
2023-02-23T11:14:18.159Z,2.45
2023-02-23T11:17:34.664Z,2.60
2023-02-23T11:20:40.398Z,3.30
2023-02-23T11:23:42.738Z,3.35
2023-02-23T11:26:46.576Z,3.20
2023-02-23T11:29:51.063Z,3.70
2023-02-23T11:32:58.083Z,3.28
2023-02-23T11:36:21.576Z,3.20
2023-02-23T11:39:23.833Z,3.20
2023-02-23T11:42:33.324Z,3.12
2023-02-23T11:45:44.624Z,2.87
2023-02-23T11:49:09.310Z,2.90
2023-02-23T11:52:18.592Z,3.55
2023-02-23T11:55:20.839Z,2.90
2023-02-23T11:58:39.558Z,4.18
2023-02-23T12:01:51.180Z,3.45
2023-02-23T12:05:17.900Z,3.53
2023-02-23T12:08:39.664Z,3.37
2023-02-23T12:11:45.681Z,3.25
2023-02-23T12:14:57.506Z,2.70
2023-02-23T12:18:05.232Z,3.70
2023-02-23T12:21:28.828Z,3.20
2023-02-23T12:24:44.875Z,3.90
2023-02-23T12:27:55.428Z,3.00
2023-02-23T12:31:23.428Z,3.77
2023-02-23T12:34:31.737Z,4.35
2023-02-23T12:37:43.643Z,3.55
2023-02-23T12:40:47.081Z,3.75
2023-02-23T12:43:58.256Z,3.53
2023-02-23T12:47:07.788Z,3.30
2023-02-23T12:50:33.776Z,3.58
2023-02-23T12:53:44.176Z,4.12
2023-02-23T12:57:07.824Z,3.50
2023-02-23T13:00:51.285Z,3.42
2023-02-23T13:04:27.033Z,2.92
2023-02-23T13:07:45.045Z,3.78
2023-02-23T13:11:41.656Z,3.80
2023-02-23T13:15:02.446Z,3.60
2023-02-23T13:18:14.375Z,3.50
2023-02-23T13:21:40.127Z,3.10
2023-02-23T13:24:46.431Z,3.75
2023-02-23T13:27:52.579Z,2.92
2023-02-23T13:30:55.046Z,2.87
2023-02-23T13:33:58.953Z,3.45
2023-02-23T13:37:05.613Z,3.97
2023-02-23T13:40:15.990Z,3.37
2023-02-23T13:43:30.396Z,3.28
2023-02-23T13:46:50.046Z,2.75
2023-02-23T13:50:02.700Z,3.47
2023-02-23T13:53:07.880Z,3.10
2023-02-23T13:56:22.820Z,3.35
2023-02-23T13:59:29.510Z,2.92
2023-02-23T14:02:35.017Z,2.95
2023-02-23T14:05:44.516Z,2.78
2023-02-23T14:09:12.219Z,2.83
2023-02-23T14:12:36.226Z,4.50
2023-02-23T14:15:38.331Z,6.37
2023-02-23T14:19:03.889Z,3.45
2023-02-23T14:22:22.068Z,3.42
2023-02-23T14:25:33.270Z,2.37
2023-02-23T14:28:40.670Z,2.50
2023-02-23T14:32:04.359Z,3.20
2023-02-23T14:35:32.246Z,3.40
2023-02-23T14:38:47.492Z,3.72
2023-02-23T14:41:59.009Z,4.87
2023-02-23T14:45:12.262Z,4.43
2023-02-23T14:48:17.430Z,3.28
2023-02-23T14:51:33.570Z,4.80
2023-02-23T14:54:40.656Z,3.30
2023-02-23T14:57:43.855Z,3.90
2023-02-23T15:00:46.033Z,4.00
2023-02-23T15:04:08.177Z,4.22
2023-02-23T15:07:18.849Z,3.62
2023-02-23T15:10:44.589Z,5.43
2023-02-23T15:13:51.200Z,4.85
2023-02-23T15:16:56.089Z,9.38
2023-02-23T15:20:17.697Z,5.03
2023-02-23T15:23:20.957Z,7.22
2023-02-23T15:26:33.910Z,4.20
2023-02-23T15:29:36.151Z,4.57
2023-02-23T15:32:38.746Z,5.68
2023-02-23T15:36:14.694Z,3.90
2023-02-23T15:39:19.253Z,11.07
2023-02-23T15:42:25.925Z,4.25
2023-02-23T15:45:35.932Z,3.20
2023-02-23T15:48:49.082Z,4.10
2023-02-23T15:51:53.452Z,15.95
2023-02-23T15:55:06.477Z,9.50
2023-02-23T15:58:28.097Z,13.52
2023-02-23T16:04:34.042Z,4.15
2023-02-23T16:07:43.080Z,6.78
2023-02-23T16:10:46.886Z,22.45
2023-02-23T16:13:51.611Z,7.70
2023-02-23T16:17:09.922Z,7.40
2023-02-23T16:20:18.883Z,6.68
2023-02-23T16:23:40.942Z,8.02
2023-02-23T16:26:53.695Z,10.77
2023-02-23T16:30:00.324Z,11.93
2023-02-23T16:33:19.003Z,12.82
2023-02-23T16:36:24.786Z,12.15
2023-02-23T16:39:33.555Z,12.35
2023-02-23T16:42:36.127Z,11.45
2023-02-23T16:45:40.636Z,11.77
2023-02-23T16:48:44.338Z,12.80
2023-02-23T16:51:46.721Z,10.70
2023-02-23T16:54:54.502Z,10.02
2023-02-23T16:58:00.133Z,18.27
2023-02-23T17:01:02.916Z,21.27
2023-02-23T17:04:12.109Z,33.35
2023-02-23T17:07:19.527Z,20.42
2023-02-23T17:10:27.595Z,12.55
2023-02-23T17:13:33.952Z,14.15
2023-02-23T17:16:36.312Z,14.23
2023-02-23T17:19:38.809Z,15.55
2023-02-23T17:22:41.315Z,14.20
2023-02-23T17:25:43.859Z,14.30
2023-02-23T17:28:46.140Z,15.48
2023-02-23T17:31:51.337Z,12.40
2023-02-23T17:34:53.704Z,11.35
2023-02-23T17:37:56.114Z,16.83
2023-02-23T17:41:07.024Z,15.80
2023-02-23T17:44:14.436Z,19.50
2023-02-23T17:47:16.995Z,16.52
2023-02-23T17:50:26.012Z,12.43
2023-02-23T17:53:32.478Z,10.60
2023-02-23T17:56:36.410Z,9.73
2023-02-23T17:59:38.909Z,40.97
2023-02-23T18:02:47.295Z,39.22
2023-02-23T18:05:49.797Z,11.52
2023-02-23T18:08:52.258Z,14.93
2023-02-23T18:11:56.352Z,11.05
2023-02-23T18:14:58.818Z,13.57
2023-02-23T18:18:01.641Z,15.52
2023-02-23T18:21:05.002Z,17.17
2023-02-23T18:24:10.823Z,15.77
2023-02-23T18:27:15.346Z,16.12
2023-02-23T18:30:17.913Z,18.40
2023-02-23T18:33:20.905Z,15.73
2023-02-23T18:36:28.681Z,13.75
2023-02-23T18:39:32.841Z,12.68
2023-02-23T18:42:35.394Z,13.38
2023-02-23T18:45:37.915Z,12.02
2023-02-23T18:48:40.847Z,14.18
2023-02-23T18:51:43.599Z,12.30
2023-02-23T18:54:47.450Z,10.27
2023-02-23T18:57:51.007Z,10.40
2023-02-23T19:00:58.702Z,10.85
2023-02-23T19:04:07.447Z,10.77
2023-02-23T19:07:11.297Z,7.97
2023-02-23T19:10:16.383Z,6.45
2023-02-23T19:13:22.282Z,7.35
2023-02-23T19:16:26.110Z,5.68
2023-02-23T19:19:28.641Z,5.82
2023-02-23T19:22:31.960Z,5.65
2023-02-23T19:25:38.610Z,4.97
2023-02-23T19:28:42.229Z,4.25
2023-02-23T19:31:48.681Z,5.05
2023-02-23T19:34:50.958Z,5.03
2023-02-23T19:37:54.395Z,3.70
2023-02-23T19:40:57.472Z,4.07
2023-02-23T19:44:01.607Z,4.62
2023-02-23T19:47:05.718Z,4.53
2023-02-23T19:50:11.989Z,4.22
2023-02-23T19:53:16.796Z,3.62
2023-02-23T19:56:19.445Z,3.45
2023-02-23T19:59:21.997Z,4.18
2023-02-23T20:02:25.808Z,3.53
2023-02-23T20:05:28.489Z,4.00
2023-02-23T20:08:31.053Z,4.90
2023-02-23T20:11:33.681Z,3.15
2023-02-23T20:14:38.612Z,3.97
2023-02-23T20:17:42.163Z,4.28
2023-02-23T20:20:46.679Z,3.60
2023-02-23T20:23:49.994Z,3.53
2023-02-23T20:26:59.298Z,4.78
2023-02-23T20:30:02.691Z,4.45
2023-02-23T20:33:06.404Z,3.62
2023-02-23T20:36:09.100Z,4.07
2023-02-23T20:39:14.421Z,4.53
2023-02-23T20:42:17.512Z,4.05
2023-02-23T20:45:22.384Z,4.30
2023-02-23T20:48:24.666Z,4.35
2023-02-23T20:51:27.632Z,4.57
2023-02-23T20:54:30.054Z,3.25
2023-02-23T20:57:33.820Z,3.90
2023-02-23T21:00:36.195Z,3.75
2023-02-23T21:03:38.504Z,4.75
2023-02-23T21:06:40.997Z,4.20
2023-02-23T21:09:43.557Z,4.50
2023-02-23T21:12:46.448Z,4.03
2023-02-23T21:15:56.663Z,4.85
2023-02-23T21:19:05.800Z,4.55
2023-02-23T21:22:08.603Z,4.80
2023-02-23T21:25:12.009Z,4.20
2023-02-23T21:28:15.042Z,3.95
2023-02-23T21:31:17.322Z,4.53
2023-02-23T21:34:20.283Z,4.15
2023-02-23T21:37:22.593Z,4.12
2023-02-23T21:40:25.042Z,3.62
2023-02-23T21:43:28.033Z,3.67
2023-02-23T21:46:30.279Z,3.47
2023-02-23T21:49:33.158Z,4.22
2023-02-23T21:52:35.356Z,3.80
2023-02-23T21:55:40.534Z,3.67
2023-02-23T21:58:48.981Z,4.50
2023-02-23T22:01:51.180Z,3.12
2023-02-23T22:04:53.413Z,4.28
2023-02-23T22:07:55.737Z,4.00
2023-02-23T22:10:57.990Z,4.75
2023-02-23T22:14:00.408Z,5.00
2023-02-23T22:17:03.923Z,4.22
2023-02-23T22:20:07.420Z,3.45
2023-02-23T22:23:09.617Z,3.85
2023-02-23T22:26:11.871Z,3.70
2023-02-23T22:29:14.187Z,4.55
2023-02-23T22:32:17.698Z,3.03
2023-02-23T22:35:20.026Z,4.20
2023-02-23T22:38:22.235Z,4.18
2023-02-23T22:41:24.773Z,3.35
2023-02-23T22:44:27.166Z,3.65
2023-02-23T22:47:29.425Z,3.65
2023-02-23T22:50:33.469Z,4.03
2023-02-23T22:53:35.863Z,3.85
2023-02-23T22:56:38.326Z,3.45
2023-02-23T22:59:40.560Z,3.25
2023-02-23T23:02:45.588Z,3.85
2023-02-23T23:05:51.102Z,3.80
2023-02-23T23:08:56.936Z,3.53
2023-02-23T23:11:59.277Z,3.75
2023-02-23T23:15:02.413Z,3.42
2023-02-23T23:18:14.162Z,3.65
2023-02-23T23:21:22.069Z,3.58
2023-02-23T23:24:25.113Z,4.37
2023-02-23T23:27:27.266Z,3.97
2023-02-23T23:30:30.023Z,3.53
2023-02-23T23:33:32.246Z,3.60
2023-02-23T23:36:37.463Z,3.60
2023-02-23T23:39:39.672Z,3.78
2023-02-23T23:42:46.077Z,4.00
2023-02-23T23:45:51.337Z,3.75
2023-02-23T23:48:58.474Z,4.30
2023-02-23T23:52:00.685Z,3.35
2023-02-23T23:55:04.596Z,3.62
2023-02-23T23:58:07.023Z,4.28
